sensor_id;sensor_type;location;lat;lon;timestamp;P1;durP1;ratioP1;P2;durP2;ratioP2
59024;SDS011;44806;48.008;13.666;2022-10-16T00:00:00;141.27;;;79.05;;
59024;SDS011;44806;48.008;13.666;2022-10-16T00:02:27;92.40;;;49.20;;
59024;SDS011;44806;48.008;13.666;2022-10-16T00:04:54;146.70;;;87.50;;
59024;SDS011;44806;48.008;13.666;2022-10-16T00:07:21;148.63;;;86.05;;
59024;SDS011;44806;48.008;13.666;2022-10-16T00:09:49;68.57;;;35.80;;
59024;SDS011;44806;48.008;13.666;2022-10-16T00:12:16;142.25;;;78.18;;
59024;SDS011;44806;48.008;13.666;2022-10-16T00:14:44;139.02;;;82.97;;
59024;SDS011;44806;48.008;13.666;2022-10-16T00:17:11;136.00;;;76.93;;
59024;SDS011;44806;48.008;13.666;2022-10-16T00:19:38;66.78;;;34.47;;
59024;SDS011;44806;48.008;13.666;2022-10-16T00:22:05;125.40;;;72.30;;
59024;SDS011;44806;48.008;13.666;2022-10-16T00:24:32;142.88;;;76.82;;
59024;SDS011;44806;48.008;13.666;2022-10-16T00:27:00;148.30;;;84.25;;
59024;SDS011;44806;48.008;13.666;2022-10-16T00:29:27;78.13;;;39.65;;
59024;SDS011;44806;48.008;13.666;2022-10-16T00:31:54;71.03;;;35.22;;
59024;SDS011;44806;48.008;13.666;2022-10-16T00:34:21;137.63;;;80.07;;
59024;SDS011;44806;48.008;13.666;2022-10-16T00:36:48;75.88;;;40.45;;
59024;SDS011;44806;48.008;13.666;2022-10-16T00:39:15;155.65;;;89.68;;
59024;SDS011;44806;48.008;13.666;2022-10-16T00:41:42;145.57;;;82.68;;
59024;SDS011;44806;48.008;13.666;2022-10-16T00:47:11;67.78;;;34.33;;
59024;SDS011;44806;48.008;13.666;2022-10-16T00:49:42;60.70;;;34.15;;
59024;SDS011;44806;48.008;13.666;2022-10-16T00:52:09;79.80;;;36.80;;
59024;SDS011;44806;48.008;13.666;2022-10-16T00:54:37;59.90;;;29.83;;
59024;SDS011;44806;48.008;13.666;2022-10-16T00:57:08;134.48;;;71.65;;
59024;SDS011;44806;48.008;13.666;2022-10-16T00:59:36;58.88;;;33.05;;
59024;SDS011;44806;48.008;13.666;2022-10-16T01:02:10;78.90;;;39.55;;
59024;SDS011;44806;48.008;13.666;2022-10-16T01:04:39;133.77;;;73.07;;
59024;SDS011;44806;48.008;13.666;2022-10-16T01:07:10;77.22;;;38.97;;
59024;SDS011;44806;48.008;13.666;2022-10-16T01:09:46;95.90;;;42.03;;
59024;SDS011;44806;48.008;13.666;2022-10-16T01:12:21;82.70;;;46.22;;
59024;SDS011;44806;48.008;13.666;2022-10-16T01:14:57;156.47;;;76.27;;
59024;SDS011;44806;48.008;13.666;2022-10-16T01:17:30;90.45;;;45.53;;
59024;SDS011;44806;48.008;13.666;2022-10-16T01:20:05;102.60;;;45.72;;
59024;SDS011;44806;48.008;13.666;2022-10-16T01:22:39;93.20;;;41.40;;
59024;SDS011;44806;48.008;13.666;2022-10-16T01:25:16;150.07;;;78.53;;
59024;SDS011;44806;48.008;13.666;2022-10-16T01:27:51;143.68;;;80.78;;
59024;SDS011;44806;48.008;13.666;2022-10-16T01:30:21;59.60;;;38.65;;
59024;SDS011;44806;48.008;13.666;2022-10-16T01:32:52;100.25;;;42.95;;
59024;SDS011;44806;48.008;13.666;2022-10-16T01:35:24;87.85;;;41.42;;
59024;SDS011;44806;48.008;13.666;2022-10-16T01:37:55;148.13;;;76.82;;
59024;SDS011;44806;48.008;13.666;2022-10-16T01:40:26;136.13;;;71.53;;
59024;SDS011;44806;48.008;13.666;2022-10-16T01:42:56;152.05;;;81.95;;
59024;SDS011;44806;48.008;13.666;2022-10-16T01:45:27;87.72;;;42.55;;
59024;SDS011;44806;48.008;13.666;2022-10-16T01:47:55;135.60;;;72.82;;
59024;SDS011;44806;48.008;13.666;2022-10-16T01:50:23;50.78;;;25.90;;
59024;SDS011;44806;48.008;13.666;2022-10-16T01:52:52;139.48;;;71.43;;
59024;SDS011;44806;48.008;13.666;2022-10-16T01:55:25;131.48;;;65.60;;
59024;SDS011;44806;48.008;13.666;2022-10-16T01:57:56;129.43;;;67.78;;
59024;SDS011;44806;48.008;13.666;2022-10-16T02:00:25;134.05;;;67.93;;
59024;SDS011;44806;48.008;13.666;2022-10-16T02:02:53;138.43;;;72.78;;
59024;SDS011;44806;48.008;13.666;2022-10-16T02:05:24;74.97;;;35.53;;
59024;SDS011;44806;48.008;13.666;2022-10-16T02:07:54;156.55;;;80.53;;
59024;SDS011;44806;48.008;13.666;2022-10-16T02:10:21;60.67;;;31.98;;
59024;SDS011;44806;48.008;13.666;2022-10-16T02:12:50;146.40;;;75.93;;
59024;SDS011;44806;48.008;13.666;2022-10-16T02:15:25;170.60;;;84.22;;
59024;SDS011;44806;48.008;13.666;2022-10-16T02:17:52;96.03;;;42.58;;
59024;SDS011;44806;48.008;13.666;2022-10-16T02:20:20;144.43;;;79.13;;
59024;SDS011;44806;48.008;13.666;2022-10-16T02:22:52;127.18;;;71.70;;
59024;SDS011;44806;48.008;13.666;2022-10-16T02:25:22;76.13;;;34.45;;
59024;SDS011;44806;48.008;13.666;2022-10-16T02:27:57;147.60;;;74.82;;
59024;SDS011;44806;48.008;13.666;2022-10-16T02:30:30;139.88;;;73.28;;
59024;SDS011;44806;48.008;13.666;2022-10-16T02:33:02;70.85;;;35.45;;
59024;SDS011;44806;48.008;13.666;2022-10-16T02:35:33;60.30;;;28.63;;
59024;SDS011;44806;48.008;13.666;2022-10-16T02:38:00;69.35;;;34.22;;
59024;SDS011;44806;48.008;13.666;2022-10-16T02:40:28;47.47;;;24.00;;
59024;SDS011;44806;48.008;13.666;2022-10-16T02:42:55;31.83;;;19.98;;
59024;SDS011;44806;48.008;13.666;2022-10-16T02:45:23;49.70;;;26.30;;
59024;SDS011;44806;48.008;13.666;2022-10-16T02:47:51;42.00;;;22.98;;
59024;SDS011;44806;48.008;13.666;2022-10-16T02:50:18;31.88;;;17.95;;
59024;SDS011;44806;48.008;13.666;2022-10-16T02:52:45;47.13;;;25.83;;
59024;SDS011;44806;48.008;13.666;2022-10-16T02:55:12;35.65;;;23.00;;
59024;SDS011;44806;48.008;13.666;2022-10-16T02:57:39;52.13;;;27.25;;
59024;SDS011;44806;48.008;13.666;2022-10-16T03:00:07;43.22;;;21.88;;
59024;SDS011;44806;48.008;13.666;2022-10-16T03:02:37;34.58;;;20.50;;
59024;SDS011;44806;48.008;13.666;2022-10-16T03:05:05;27.52;;;15.60;;
59024;SDS011;44806;48.008;13.666;2022-10-16T03:07:32;116.13;;;50.22;;
59024;SDS011;44806;48.008;13.666;2022-10-16T03:09:59;51.47;;;28.95;;
59024;SDS011;44806;48.008;13.666;2022-10-16T03:12:26;30.80;;;17.42;;
59024;SDS011;44806;48.008;13.666;2022-10-16T03:14:54;45.63;;;24.73;;
59024;SDS011;44806;48.008;13.666;2022-10-16T03:17:21;29.10;;;14.50;;
59024;SDS011;44806;48.008;13.666;2022-10-16T03:19:50;42.63;;;28.02;;
59024;SDS011;44806;48.008;13.666;2022-10-16T03:22:17;28.30;;;16.42;;
59024;SDS011;44806;48.008;13.666;2022-10-16T03:24:44;27.48;;;16.15;;
59024;SDS011;44806;48.008;13.666;2022-10-16T03:27:11;49.15;;;26.75;;
59024;SDS011;44806;48.008;13.666;2022-10-16T03:29:38;52.78;;;27.40;;
59024;SDS011;44806;48.008;13.666;2022-10-16T03:32:05;124.65;;;51.63;;
59024;SDS011;44806;48.008;13.666;2022-10-16T03:34:32;54.90;;;28.25;;
59024;SDS011;44806;48.008;13.666;2022-10-16T03:37:01;28.63;;;16.95;;
59024;SDS011;44806;48.008;13.666;2022-10-16T03:39:28;50.38;;;16.30;;
59024;SDS011;44806;48.008;13.666;2022-10-16T03:41:58;23.75;;;10.75;;
59024;SDS011;44806;48.008;13.666;2022-10-16T03:44:25;24.45;;;14.75;;
59024;SDS011;44806;48.008;13.666;2022-10-16T03:46:52;30.85;;;15.02;;
59024;SDS011;44806;48.008;13.666;2022-10-16T03:49:19;51.28;;;25.20;;
59024;SDS011;44806;48.008;13.666;2022-10-16T03:51:46;34.50;;;18.67;;
59024;SDS011;44806;48.008;13.666;2022-10-16T03:54:14;30.55;;;17.63;;
59024;SDS011;44806;48.008;13.666;2022-10-16T03:56:41;64.30;;;30.27;;
59024;SDS011;44806;48.008;13.666;2022-10-16T03:59:08;47.20;;;23.58;;
59024;SDS011;44806;48.008;13.666;2022-10-16T04:01:35;34.15;;;16.35;;
59024;SDS011;44806;48.008;13.666;2022-10-16T04:04:02;71.38;;;29.67;;
59024;SDS011;44806;48.008;13.666;2022-10-16T04:06:30;57.88;;;25.48;;
59024;SDS011;44806;48.008;13.666;2022-10-16T04:08:57;47.17;;;26.15;;
59024;SDS011;44806;48.008;13.666;2022-10-16T04:11:25;37.25;;;22.02;;
59024;SDS011;44806;48.008;13.666;2022-10-16T04:13:52;46.75;;;26.88;;
59024;SDS011;44806;48.008;13.666;2022-10-16T04:16:20;73.72;;;32.10;;
59024;SDS011;44806;48.008;13.666;2022-10-16T04:18:47;33.05;;;18.63;;
59024;SDS011;44806;48.008;13.666;2022-10-16T04:21:14;21.98;;;12.50;;
59024;SDS011;44806;48.008;13.666;2022-10-16T04:23:41;41.15;;;20.85;;
59024;SDS011;44806;48.008;13.666;2022-10-16T04:26:09;33.40;;;18.45;;
59024;SDS011;44806;48.008;13.666;2022-10-16T04:28:37;31.45;;;16.85;;
59024;SDS011;44806;48.008;13.666;2022-10-16T04:31:05;29.50;;;15.82;;
59024;SDS011;44806;48.008;13.666;2022-10-16T04:33:32;51.72;;;26.65;;
59024;SDS011;44806;48.008;13.666;2022-10-16T04:36:00;42.30;;;25.85;;
59024;SDS011;44806;48.008;13.666;2022-10-16T04:38:28;32.30;;;16.90;;
59024;SDS011;44806;48.008;13.666;2022-10-16T04:40:55;36.30;;;20.27;;
59024;SDS011;44806;48.008;13.666;2022-10-16T04:43:22;134.98;;;49.33;;
59024;SDS011;44806;48.008;13.666;2022-10-16T04:45:50;41.40;;;23.98;;
59024;SDS011;44806;48.008;13.666;2022-10-16T04:48:19;63.90;;;29.08;;
59024;SDS011;44806;48.008;13.666;2022-10-16T04:50:47;27.48;;;17.48;;
59024;SDS011;44806;48.008;13.666;2022-10-16T04:53:14;55.42;;;25.80;;
59024;SDS011;44806;48.008;13.666;2022-10-16T04:55:41;33.15;;;19.05;;
59024;SDS011;44806;48.008;13.666;2022-10-16T04:58:08;68.75;;;29.02;;
59024;SDS011;44806;48.008;13.666;2022-10-16T05:00:36;47.70;;;24.58;;
59024;SDS011;44806;48.008;13.666;2022-10-16T05:03:04;40.70;;;22.95;;
59024;SDS011;44806;48.008;13.666;2022-10-16T05:05:33;85.45;;;33.17;;
59024;SDS011;44806;48.008;13.666;2022-10-16T05:08:01;145.68;;;61.85;;
59024;SDS011;44806;48.008;13.666;2022-10-16T05:10:29;31.05;;;16.15;;
59024;SDS011;44806;48.008;13.666;2022-10-16T05:12:56;33.50;;;17.65;;
59024;SDS011;44806;48.008;13.666;2022-10-16T05:45:42;26.20;;;16.63;;
59024;SDS011;44806;48.008;13.666;2022-10-16T05:48:10;39.35;;;22.63;;
59024;SDS011;44806;48.008;13.666;2022-10-16T05:50:37;27.50;;;15.50;;
59024;SDS011;44806;48.008;13.666;2022-10-16T05:53:04;38.67;;;14.80;;
59024;SDS011;44806;48.008;13.666;2022-10-16T05:55:31;35.85;;;22.42;;
59024;SDS011;44806;48.008;13.666;2022-10-16T05:57:58;41.65;;;23.00;;
59024;SDS011;44806;48.008;13.666;2022-10-16T06:00:25;28.95;;;15.63;;
59024;SDS011;44806;48.008;13.666;2022-10-16T06:02:53;23.63;;;13.75;;
59024;SDS011;44806;48.008;13.666;2022-10-16T06:05:20;48.10;;;26.35;;
59024;SDS011;44806;48.008;13.666;2022-10-16T06:07:47;132.10;;;49.97;;
59024;SDS011;44806;48.008;13.666;2022-10-16T06:10:14;38.58;;;18.70;;
59024;SDS011;44806;48.008;13.666;2022-10-16T06:12:42;63.20;;;29.05;;
59024;SDS011;44806;48.008;13.666;2022-10-16T06:15:09;37.42;;;21.63;;
59024;SDS011;44806;48.008;13.666;2022-10-16T06:17:36;125.53;;;50.75;;
59024;SDS011;44806;48.008;13.666;2022-10-16T06:20:05;26.83;;;16.05;;
59024;SDS011;44806;48.008;13.666;2022-10-16T06:22:32;32.78;;;15.05;;
59024;SDS011;44806;48.008;13.666;2022-10-16T06:25:00;43.58;;;23.95;;
59024;SDS011;44806;48.008;13.666;2022-10-16T06:27:27;63.50;;;25.85;;
59024;SDS011;44806;48.008;13.666;2022-10-16T06:29:54;33.50;;;15.65;;
59024;SDS011;44806;48.008;13.666;2022-10-16T06:32:22;30.23;;;15.90;;
59024;SDS011;44806;48.008;13.666;2022-10-16T06:57:55;60.15;;;28.02;;
59024;SDS011;44806;48.008;13.666;2022-10-16T07:00:22;61.05;;;30.60;;
59024;SDS011;44806;48.008;13.666;2022-10-16T07:02:49;35.28;;;19.20;;
59024;SDS011;44806;48.008;13.666;2022-10-16T07:12:02;29.38;;;14.25;;
59024;SDS011;44806;48.008;13.666;2022-10-16T07:14:29;29.50;;;14.20;;
59024;SDS011;44806;48.008;13.666;2022-10-16T07:16:56;38.45;;;19.80;;
59024;SDS011;44806;48.008;13.666;2022-10-16T07:19:23;62.20;;;30.77;;
59024;SDS011;44806;48.008;13.666;2022-10-16T07:21:50;123.35;;;50.83;;
59024;SDS011;44806;48.008;13.666;2022-10-16T07:24:17;35.60;;;18.23;;
59024;SDS011;44806;48.008;13.666;2022-10-16T07:26:47;29.83;;;17.80;;
59024;SDS011;44806;48.008;13.666;2022-10-16T07:29:16;41.92;;;23.05;;
59024;SDS011;44806;48.008;13.666;2022-10-16T07:31:45;48.70;;;23.38;;
59024;SDS011;44806;48.008;13.666;2022-10-16T07:34:13;46.05;;;25.55;;
59024;SDS011;44806;48.008;13.666;2022-10-16T07:36:41;63.72;;;32.95;;
59024;SDS011;44806;48.008;13.666;2022-10-16T07:39:08;54.83;;;27.83;;
59024;SDS011;44806;48.008;13.666;2022-10-16T07:41:35;50.38;;;27.65;;
59024;SDS011;44806;48.008;13.666;2022-10-16T07:44:03;35.15;;;21.13;;
59024;SDS011;44806;48.008;13.666;2022-10-16T07:46:32;37.38;;;21.17;;
59024;SDS011;44806;48.008;13.666;2022-10-16T07:49:01;55.17;;;26.73;;
59024;SDS011;44806;48.008;13.666;2022-10-16T07:51:28;69.70;;;31.75;;
59024;SDS011;44806;48.008;13.666;2022-10-16T07:53:55;54.58;;;29.23;;
59024;SDS011;44806;48.008;13.666;2022-10-16T07:56:22;131.85;;;70.88;;
59024;SDS011;44806;48.008;13.666;2022-10-16T07:58:49;86.18;;;40.50;;
59024;SDS011;44806;48.008;13.666;2022-10-16T08:01:17;78.78;;;35.13;;
59024;SDS011;44806;48.008;13.666;2022-10-16T08:03:47;123.45;;;69.20;;
59024;SDS011;44806;48.008;13.666;2022-10-16T08:06:15;67.32;;;34.00;;
59024;SDS011;44806;48.008;13.666;2022-10-16T08:08:42;99.90;;;43.08;;
59024;SDS011;44806;48.008;13.666;2022-10-16T08:11:09;148.45;;;73.43;;
59024;SDS011;44806;48.008;13.666;2022-10-16T08:13:37;161.75;;;78.68;;
59024;SDS011;44806;48.008;13.666;2022-10-16T08:16:04;70.90;;;39.72;;
59024;SDS011;44806;48.008;13.666;2022-10-16T08:18:33;90.53;;;44.47;;
59024;SDS011;44806;48.008;13.666;2022-10-16T08:21:03;152.13;;;86.10;;
59024;SDS011;44806;48.008;13.666;2022-10-16T08:23:30;180.88;;;88.75;;
59024;SDS011;44806;48.008;13.666;2022-10-16T08:56:39;173.60;;;99.17;;
59024;SDS011;44806;48.008;13.666;2022-10-16T08:59:09;145.68;;;87.55;;
59024;SDS011;44806;48.008;13.666;2022-10-16T09:01:38;148.40;;;87.97;;
59024;SDS011;44806;48.008;13.666;2022-10-16T09:04:18;169.05;;;94.93;;
59024;SDS011;44806;48.008;13.666;2022-10-16T09:07:09;133.77;;;63.08;;
59024;SDS011;44806;48.008;13.666;2022-10-16T09:09:46;154.73;;;91.03;;
59024;SDS011;44806;48.008;13.666;2022-10-16T09:12:26;176.68;;;97.18;;
59024;SDS011;44806;48.008;13.666;2022-10-16T09:15:03;116.57;;;63.03;;
59024;SDS011;44806;48.008;13.666;2022-10-16T09:17:42;160.27;;;91.32;;
59024;SDS011;44806;48.008;13.666;2022-10-16T09:20:20;152.10;;;90.82;;
59024;SDS011;44806;48.008;13.666;2022-10-16T09:22:56;176.48;;;101.32;;
59024;SDS011;44806;48.008;13.666;2022-10-16T09:25:36;161.32;;;91.70;;
59024;SDS011;44806;48.008;13.666;2022-10-16T09:28:08;67.72;;;35.65;;
59024;SDS011;44806;48.008;13.666;2022-10-16T09:30:36;99.82;;;60.05;;
59024;SDS011;44806;48.008;13.666;2022-10-16T09:33:05;141.18;;;103.28;;
59024;SDS011;44806;48.008;13.666;2022-10-16T09:35:35;161.75;;;101.55;;
59024;SDS011;44806;48.008;13.666;2022-10-16T09:38:05;127.53;;;94.15;;
59024;SDS011;44806;48.008;13.666;2022-10-16T09:40:33;86.65;;;40.78;;
59024;SDS011;44806;48.008;13.666;2022-10-16T09:43:16;100.93;;;53.20;;
59024;SDS011;44806;48.008;13.666;2022-10-16T09:45:59;221.90;;;114.28;;
59024;SDS011;44806;48.008;13.666;2022-10-16T09:48:31;190.75;;;101.28;;
59024;SDS011;44806;48.008;13.666;2022-10-16T09:51:03;485.13;;;199.88;;
59024;SDS011;44806;48.008;13.666;2022-10-16T10:22:45;616.13;;;290.80;;
59024;SDS011;44806;48.008;13.666;2022-10-16T10:25:15;510.98;;;249.52;;
59024;SDS011;44806;48.008;13.666;2022-10-16T10:27:52;479.27;;;248.55;;
59024;SDS011;44806;48.008;13.666;2022-10-16T10:30:33;697.88;;;366.00;;
59024;SDS011;44806;48.008;13.666;2022-10-16T10:35:58;815.85;;;448.73;;
59024;SDS011;44806;48.008;13.666;2022-10-16T10:38:38;738.53;;;424.98;;
59024;SDS011;44806;48.008;13.666;2022-10-16T10:44:13;763.47;;;377.38;;
59024;SDS011;44806;48.008;13.666;2022-10-16T10:46:47;1389.05;;;912.55;;
59024;SDS011;44806;48.008;13.666;2022-10-16T10:49:20;823.90;;;409.08;;
59024;SDS011;44806;48.008;13.666;2022-10-16T10:52:02;649.05;;;321.20;;
59024;SDS011;44806;48.008;13.666;2022-10-16T10:54:43;983.58;;;491.30;;
59024;SDS011;44806;48.008;13.666;2022-10-16T10:57:19;621.92;;;263.45;;
59024;SDS011;44806;48.008;13.666;2022-10-16T11:00:00;1151.32;;;646.85;;
59024;SDS011;44806;48.008;13.666;2022-10-16T11:02:35;788.97;;;411.65;;
59024;SDS011;44806;48.008;13.666;2022-10-16T11:08:00;651.65;;;320.13;;
59024;SDS011;44806;48.008;13.666;2022-10-16T11:10:33;1249.72;;;620.53;;
59024;SDS011;44806;48.008;13.666;2022-10-16T11:13:10;943.40;;;594.13;;
59024;SDS011;44806;48.008;13.666;2022-10-16T11:15:46;971.28;;;530.85;;
59024;SDS011;44806;48.008;13.666;2022-10-16T11:18:16;1122.55;;;678.05;;
59024;SDS011;44806;48.008;13.666;2022-10-16T11:20:47;942.75;;;511.40;;
59024;SDS011;44806;48.008;13.666;2022-10-16T11:23:18;1228.63;;;669.47;;
59024;SDS011;44806;48.008;13.666;2022-10-16T11:25:53;979.30;;;526.95;;
59024;SDS011;44806;48.008;13.666;2022-10-16T11:28:23;963.55;;;533.53;;
59024;SDS011;44806;48.008;13.666;2022-10-16T11:30:57;1806.50;;;941.88;;
59024;SDS011;44806;48.008;13.666;2022-10-16T11:33:30;1188.30;;;664.47;;
59024;SDS011;44806;48.008;13.666;2022-10-16T11:36:03;906.55;;;483.05;;
59024;SDS011;44806;48.008;13.666;2022-10-16T11:38:39;1999.90;;;937.42;;
59024;SDS011;44806;48.008;13.666;2022-10-16T11:41:19;1999.90;;;754.92;;
59024;SDS011;44806;48.008;13.666;2022-10-16T11:43:53;1253.10;;;766.93;;
59024;SDS011;44806;48.008;13.666;2022-10-16T11:46:30;917.10;;;461.65;;
59024;SDS011;44806;48.008;13.666;2022-10-16T11:49:01;964.95;;;456.83;;
59024;SDS011;44806;48.008;13.666;2022-10-16T11:51:36;721.28;;;350.42;;
59024;SDS011;44806;48.008;13.666;2022-10-16T11:54:08;910.97;;;412.52;;
59024;SDS011;44806;48.008;13.666;2022-10-16T11:56:48;1441.00;;;820.30;;
59024;SDS011;44806;48.008;13.666;2022-10-16T11:59:21;1999.90;;;773.80;;
59024;SDS011;44806;48.008;13.666;2022-10-16T12:01:53;1647.75;;;925.28;;
59024;SDS011;44806;48.008;13.666;2022-10-16T12:04:29;873.78;;;407.45;;
59024;SDS011;44806;48.008;13.666;2022-10-16T12:42:31;1243.38;;;640.15;;
59024;SDS011;44806;48.008;13.666;2022-10-16T12:45:00;1423.38;;;709.13;;
59024;SDS011;44806;48.008;13.666;2022-10-16T12:47:37;760.63;;;429.83;;
59024;SDS011;44806;48.008;13.666;2022-10-16T12:50:27;1487.95;;;620.33;;
59024;SDS011;44806;48.008;13.666;2022-10-16T12:53:00;1053.00;;;561.97;;
59024;SDS011;44806;48.008;13.666;2022-10-16T12:55:31;1233.28;;;569.08;;
59024;SDS011;44806;48.008;13.666;2022-10-16T13:01:04;1995.25;;;959.80;;
59024;SDS011;44806;48.008;13.666;2022-10-16T13:06:33;810.60;;;473.15;;
59024;SDS011;44806;48.008;13.666;2022-10-16T13:09:15;958.63;;;429.80;;
59024;SDS011;44806;48.008;13.666;2022-10-16T13:11:54;1398.88;;;746.33;;
59024;SDS011;44806;48.008;13.666;2022-10-16T13:17:37;1090.45;;;517.53;;
59024;SDS011;44806;48.008;13.666;2022-10-16T13:20:12;1229.38;;;688.42;;
59024;SDS011;44806;48.008;13.666;2022-10-16T13:22:48;983.03;;;501.75;;
59024;SDS011;44806;48.008;13.666;2022-10-16T13:25:23;1042.30;;;590.08;;
59024;SDS011;44806;48.008;13.666;2022-10-16T13:27:59;1556.55;;;714.13;;
59024;SDS011;44806;48.008;13.666;2022-10-16T13:30:28;1386.75;;;662.38;;
59024;SDS011;44806;48.008;13.666;2022-10-16T13:32:59;1999.90;;;989.83;;
59024;SDS011;44806;48.008;13.666;2022-10-16T13:35:28;1246.40;;;531.00;;
59024;SDS011;44806;48.008;13.666;2022-10-16T13:38:04;1935.13;;;910.10;;
59024;SDS011;44806;48.008;13.666;2022-10-16T13:40:36;1253.95;;;661.67;;
59024;SDS011;44806;48.008;13.666;2022-10-16T13:43:13;1092.82;;;616.80;;
59024;SDS011;44806;48.008;13.666;2022-10-16T13:45:52;1265.40;;;715.45;;
59024;SDS011;44806;48.008;13.666;2022-10-16T13:48:22;1243.53;;;754.20;;
59024;SDS011;44806;48.008;13.666;2022-10-16T13:53:42;1158.15;;;584.38;;
59024;SDS011;44806;48.008;13.666;2022-10-16T13:56:11;1187.50;;;577.42;;
59024;SDS011;44806;48.008;13.666;2022-10-16T13:58:43;1764.80;;;957.83;;
59024;SDS011;44806;48.008;13.666;2022-10-16T14:01:15;1738.53;;;930.47;;
59024;SDS011;44806;48.008;13.666;2022-10-16T14:03:46;701.47;;;362.38;;
59024;SDS011;44806;48.008;13.666;2022-10-16T14:06:18;1002.67;;;427.00;;
59024;SDS011;44806;48.008;13.666;2022-10-16T14:08:48;1576.25;;;693.85;;
59024;SDS011;44806;48.008;13.666;2022-10-16T14:11:20;764.15;;;313.95;;
59024;SDS011;44806;48.008;13.666;2022-10-16T14:13:49;1728.70;;;822.33;;
59024;SDS011;44806;48.008;13.666;2022-10-16T14:16:18;1353.68;;;707.30;;
59024;SDS011;44806;48.008;13.666;2022-10-16T14:18:50;1999.90;;;925.22;;
59024;SDS011;44806;48.008;13.666;2022-10-16T14:21:22;800.50;;;525.80;;
59024;SDS011;44806;48.008;13.666;2022-10-16T14:23:49;1681.82;;;781.78;;
59024;SDS011;44806;48.008;13.666;2022-10-16T14:50:32;1114.82;;;601.78;;
59024;SDS011;44806;48.008;13.666;2022-10-16T14:52:59;1259.45;;;712.83;;
59024;SDS011;44806;48.008;13.666;2022-10-16T14:55:26;961.55;;;507.90;;
59024;SDS011;44806;48.008;13.666;2022-10-16T15:04:38;1147.10;;;634.33;;
59024;SDS011;44806;48.008;13.666;2022-10-16T15:07:07;1286.30;;;688.20;;
59024;SDS011;44806;48.008;13.666;2022-10-16T15:09:35;1999.90;;;999.90;;
59024;SDS011;44806;48.008;13.666;2022-10-16T15:12:02;1126.50;;;600.38;;
59024;SDS011;44806;48.008;13.666;2022-10-16T15:14:29;1999.90;;;951.58;;
59024;SDS011;44806;48.008;13.666;2022-10-16T15:16:56;1853.60;;;921.15;;
59024;SDS011;44806;48.008;13.666;2022-10-16T15:19:23;855.83;;;390.90;;
59024;SDS011;44806;48.008;13.666;2022-10-16T15:21:50;1096.22;;;521.40;;
59024;SDS011;44806;48.008;13.666;2022-10-16T15:24:19;1005.50;;;519.70;;
59024;SDS011;44806;48.008;13.666;2022-10-16T15:26:47;880.55;;;484.85;;
59024;SDS011;44806;48.008;13.666;2022-10-16T15:29:15;1287.25;;;616.55;;
59024;SDS011;44806;48.008;13.666;2022-10-16T15:31:42;796.13;;;422.48;;
59024;SDS011;44806;48.008;13.666;2022-10-16T15:34:09;838.30;;;430.48;;
59024;SDS011;44806;48.008;13.666;2022-10-16T15:36:38;824.17;;;361.33;;
59024;SDS011;44806;48.008;13.666;2022-10-16T15:39:08;663.22;;;359.33;;
59024;SDS011;44806;48.008;13.666;2022-10-16T15:41:40;1072.78;;;545.50;;
59024;SDS011;44806;48.008;13.666;2022-10-16T15:44:08;862.03;;;426.67;;
59024;SDS011;44806;48.008;13.666;2022-10-16T15:46:35;878.15;;;456.08;;
59024;SDS011;44806;48.008;13.666;2022-10-16T15:49:02;829.67;;;356.27;;
59024;SDS011;44806;48.008;13.666;2022-10-16T15:51:30;737.65;;;395.40;;
59024;SDS011;44806;48.008;13.666;2022-10-16T15:53:58;635.80;;;296.50;;
59024;SDS011;44806;48.008;13.666;2022-10-16T15:56:26;1089.80;;;613.85;;
59024;SDS011;44806;48.008;13.666;2022-10-16T15:58:55;740.00;;;446.70;;
59024;SDS011;44806;48.008;13.666;2022-10-16T16:01:23;750.67;;;384.38;;
59024;SDS011;44806;48.008;13.666;2022-10-16T16:03:53;1210.88;;;709.20;;
59024;SDS011;44806;48.008;13.666;2022-10-16T16:33:18;639.92;;;269.73;;
59024;SDS011;44806;48.008;13.666;2022-10-16T16:35:45;608.38;;;293.77;;
59024;SDS011;44806;48.008;13.666;2022-10-16T16:38:12;437.02;;;196.82;;
59024;SDS011;44806;48.008;13.666;2022-10-16T16:40:39;513.20;;;209.95;;
59024;SDS011;44806;48.008;13.666;2022-10-16T16:43:06;667.67;;;338.48;;
59024;SDS011;44806;48.008;13.666;2022-10-16T16:45:34;506.13;;;212.65;;
59024;SDS011;44806;48.008;13.666;2022-10-16T16:48:05;428.70;;;211.82;;
59024;SDS011;44806;48.008;13.666;2022-10-16T16:50:36;432.77;;;169.30;;
59024;SDS011;44806;48.008;13.666;2022-10-16T16:53:03;437.90;;;159.50;;
59024;SDS011;44806;48.008;13.666;2022-10-16T16:55:30;486.35;;;206.57;;
59024;SDS011;44806;48.008;13.666;2022-10-16T16:57:59;452.88;;;219.40;;
59024;SDS011;44806;48.008;13.666;2022-10-16T17:00:28;430.13;;;191.50;;
59024;SDS011;44806;48.008;13.666;2022-10-16T17:02:56;363.17;;;128.43;;
59024;SDS011;44806;48.008;13.666;2022-10-16T17:05:23;579.13;;;273.75;;
59024;SDS011;44806;48.008;13.666;2022-10-16T17:08:04;350.17;;;174.43;;
59024;SDS011;44806;48.008;13.666;2022-10-16T17:10:33;179.57;;;109.53;;
59024;SDS011;44806;48.008;13.666;2022-10-16T17:13:00;372.90;;;188.77;;
59024;SDS011;44806;48.008;13.666;2022-10-16T17:15:27;360.38;;;129.18;;
59024;SDS011;44806;48.008;13.666;2022-10-16T17:17:55;424.83;;;197.10;;
59024;SDS011;44806;48.008;13.666;2022-10-16T17:20:22;439.65;;;217.93;;
59024;SDS011;44806;48.008;13.666;2022-10-16T17:22:49;371.50;;;112.88;;
59024;SDS011;44806;48.008;13.666;2022-10-16T17:25:18;306.25;;;145.63;;
59024;SDS011;44806;48.008;13.666;2022-10-16T17:27:45;374.42;;;171.57;;
59024;SDS011;44806;48.008;13.666;2022-10-16T17:30:13;593.85;;;257.00;;
59024;SDS011;44806;48.008;13.666;2022-10-16T17:32:40;489.58;;;229.02;;
59024;SDS011;44806;48.008;13.666;2022-10-16T17:55:28;156.70;;;106.73;;
59024;SDS011;44806;48.008;13.666;2022-10-16T17:57:56;265.23;;;151.68;;
59024;SDS011;44806;48.008;13.666;2022-10-16T18:00:23;329.42;;;124.50;;
59024;SDS011;44806;48.008;13.666;2022-10-16T18:02:50;246.15;;;142.90;;
59024;SDS011;44806;48.008;13.666;2022-10-16T18:05:17;207.80;;;110.32;;
59024;SDS011;44806;48.008;13.666;2022-10-16T18:07:44;381.42;;;181.60;;
59024;SDS011;44806;48.008;13.666;2022-10-16T18:10:11;347.45;;;176.27;;
59024;SDS011;44806;48.008;13.666;2022-10-16T18:12:40;312.23;;;145.23;;
59024;SDS011;44806;48.008;13.666;2022-10-16T18:15:07;414.13;;;177.60;;
59024;SDS011;44806;48.008;13.666;2022-10-16T18:17:35;269.60;;;144.38;;
59024;SDS011;44806;48.008;13.666;2022-10-16T18:20:02;231.30;;;119.30;;
59024;SDS011;44806;48.008;13.666;2022-10-16T18:22:31;177.95;;;108.68;;
59024;SDS011;44806;48.008;13.666;2022-10-16T18:45:31;185.70;;;106.63;;